createdAt,value
2019-01-04T00:00:35.390Z,1038.77
2019-01-04T00:01:35.638Z,1038.76
2019-01-04T00:02:35.481Z,1038.8
2019-01-04T00:03:35.796Z,1038.78
2019-01-04T00:04:36.783Z,1038.8
2019-01-04T00:05:35.545Z,1038.79
2019-01-04T00:06:35.548Z,1038.78
2019-01-04T00:07:35.560Z,1038.8
2019-01-04T00:08:35.606Z,1038.75
2019-01-04T00:09:35.779Z,1038.8
2019-01-04T00:10:35.935Z,1038.81
2019-01-04T00:11:35.603Z,1038.77
2019-01-04T00:12:35.617Z,1038.77
2019-01-04T00:13:35.378Z,1038.8
2019-01-04T00:14:35.588Z,1038.79
2019-01-04T00:15:35.391Z,1038.76
2019-01-04T00:16:35.618Z,1038.74
2019-01-04T00:17:35.432Z,1038.84
2019-01-04T00:18:35.558Z,1038.84
2019-01-04T00:19:35.441Z,1038.86
2019-01-04T00:20:35.344Z,1038.87
2019-01-04T00:21:35.424Z,1038.86
2019-01-04T00:22:35.364Z,1038.84
2019-01-04T00:23:35.444Z,1038.89
2019-01-04T00:24:35.441Z,1038.85
2019-01-04T00:25:35.351Z,1038.89
2019-01-04T00:26:35.462Z,1038.82
2019-01-04T00:27:35.469Z,1038.87
2019-01-04T00:28:35.359Z,1038.84
2019-01-04T00:29:35.398Z,1038.89
2019-01-04T00:30:35.319Z,1038.93
2019-01-04T00:31:35.478Z,1038.93
2019-01-04T00:32:35.532Z,1038.89
2019-01-04T00:33:35.457Z,1038.92
2019-01-04T00:34:35.333Z,1038.93
2019-01-04T00:35:35.350Z,1038.91
2019-01-04T00:36:35.374Z,1038.92
2019-01-04T00:37:35.343Z,1038.88
2019-01-04T00:38:35.651Z,1038.87
2019-01-04T00:39:35.522Z,1038.88
2019-01-04T00:40:35.392Z,1038.88
2019-01-04T00:41:35.371Z,1038.89
2019-01-04T00:42:35.361Z,1038.82
2019-01-04T00:43:35.579Z,1038.82
2019-01-04T00:44:35.367Z,1038.77
2019-01-04T00:45:35.682Z,1038.79
2019-01-04T00:46:35.392Z,1038.81
2019-01-04T00:47:35.634Z,1038.79
2019-01-04T00:48:35.541Z,1038.8
2019-01-04T00:49:35.582Z,1038.78
2019-01-04T00:50:35.526Z,1038.76
2019-01-04T00:51:35.310Z,1038.73
2019-01-04T00:52:35.456Z,1038.76
2019-01-04T00:53:35.305Z,1038.78
2019-01-04T00:54:35.445Z,1038.76
2019-01-04T00:55:35.345Z,1038.73
2019-01-04T00:56:35.429Z,1038.73
2019-01-04T00:57:35.765Z,1038.74
2019-01-04T00:58:35.362Z,1038.73
2019-01-04T00:59:35.643Z,1038.73
2019-01-04T01:00:35.824Z,1038.72
2019-01-04T01:01:35.468Z,1038.77
2019-01-04T01:02:35.525Z,1038.75
2019-01-04T01:03:35.328Z,1038.77
2019-01-04T01:04:35.731Z,1038.73
2019-01-04T01:05:35.728Z,1038.75
2019-01-04T01:06:35.557Z,1038.77
2019-01-04T01:07:35.679Z,1038.69
2019-01-04T01:08:35.675Z,1038.73
2019-01-04T01:09:35.419Z,1038.71
2019-01-04T01:10:35.376Z,1038.65
2019-01-04T01:11:35.502Z,1038.65
2019-01-04T01:12:35.424Z,1038.63
2019-01-04T01:13:35.438Z,1038.65
2019-01-04T01:14:35.386Z,1038.64
2019-01-04T01:15:35.417Z,1038.63
2019-01-04T01:16:35.514Z,1038.65
2019-01-04T01:17:35.597Z,1038.65
2019-01-04T01:18:35.563Z,1038.67
2019-01-04T01:19:35.567Z,1038.65
2019-01-04T01:20:35.284Z,1038.66
2019-01-04T01:21:35.346Z,1038.65
2019-01-04T01:22:35.300Z,1038.66
2019-01-04T01:23:35.333Z,1038.64
2019-01-04T01:24:35.376Z,1038.64
2019-01-04T01:25:35.590Z,1038.6
2019-01-04T01:26:35.356Z,1038.56
2019-01-04T01:27:35.699Z,1038.56
2019-01-04T01:28:35.506Z,1038.61
2019-01-04T01:29:35.372Z,1038.61
2019-01-04T01:30:35.388Z,1038.65
2019-01-04T01:31:35.498Z,1038.69
2019-01-04T01:32:35.449Z,1038.66
2019-01-04T01:33:35.260Z,1038.68
2019-01-04T01:34:35.432Z,1038.68
2019-01-04T01:35:35.284Z,1038.68
2019-01-04T01:36:35.245Z,1038.71
2019-01-04T01:37:35.567Z,1038.74
2019-01-04T01:38:35.502Z,1038.7
2019-01-04T01:39:35.603Z,1038.76
2019-01-04T01:40:35.620Z,1038.76
2019-01-04T01:41:35.425Z,1038.72
2019-01-04T01:42:35.444Z,1038.71
2019-01-04T01:43:35.258Z,1038.7
2019-01-04T01:44:35.470Z,1038.68
2019-01-04T01:45:35.272Z,1038.65
2019-01-04T01:46:35.575Z,1038.66
2019-01-04T01:47:35.449Z,1038.64
2019-01-04T01:48:35.229Z,1038.71
2019-01-04T01:49:35.325Z,1038.66
2019-01-04T01:50:35.295Z,1038.72
2019-01-04T01:51:35.391Z,1038.72
2019-01-04T01:52:35.265Z,1038.65
2019-01-04T01:53:35.247Z,1038.69
2019-01-04T01:54:35.275Z,1038.66
2019-01-04T01:55:35.359Z,1038.6
2019-01-04T01:56:35.416Z,1038.57
2019-01-04T01:57:35.446Z,1038.58
2019-01-04T01:58:35.449Z,1038.53
2019-01-04T01:59:36.074Z,1038.55
2019-01-04T02:00:35.282Z,1038.56
2019-01-04T02:01:35.267Z,1038.59
2019-01-04T02:02:35.234Z,1038.53
2019-01-04T02:03:35.241Z,1038.63
2019-01-04T02:04:35.408Z,1038.61
2019-01-04T02:05:35.435Z,1038.6
2019-01-04T02:06:35.255Z,1038.58
2019-01-04T02:07:35.242Z,1038.61
2019-01-04T02:08:35.675Z,1038.54
2019-01-04T02:09:35.302Z,1038.59
2019-01-04T02:10:35.195Z,1038.63
2019-01-04T02:11:35.289Z,1038.64
2019-01-04T02:12:35.612Z,1038.65
2019-01-04T02:13:35.201Z,1038.67
2019-01-04T02:14:35.239Z,1038.72
2019-01-04T02:15:35.457Z,1038.74
2019-01-04T02:16:35.218Z,1038.75
2019-01-04T02:17:35.248Z,1038.79
2019-01-04T02:18:35.298Z,1038.84
2019-01-04T02:19:35.202Z,1038.81
2019-01-04T02:20:35.249Z,1038.86
2019-01-04T02:21:35.340Z,1038.82
2019-01-04T02:22:35.552Z,1038.78
2019-01-04T02:23:36.027Z,1038.81
2019-01-04T02:24:35.378Z,1038.8
2019-01-04T02:25:35.371Z,1038.85
2019-01-04T02:26:35.383Z,1038.84
2019-01-04T02:27:35.345Z,1038.82
2019-01-04T02:28:35.428Z,1038.81
2019-01-04T02:29:35.375Z,1038.87
2019-01-04T02:30:35.223Z,1038.85
2019-01-04T02:31:36.486Z,1038.88
2019-01-04T02:32:35.263Z,1038.89
2019-01-04T02:33:35.391Z,1038.89
2019-01-04T02:34:35.181Z,1038.87
2019-01-04T02:35:35.490Z,1038.88
2019-01-04T02:36:35.427Z,1038.91
2019-01-04T02:37:36.049Z,1038.9
2019-01-04T02:38:35.562Z,1038.88
2019-01-04T02:39:35.479Z,1038.98
2019-01-04T02:40:35.353Z,1038.98
2019-01-04T02:41:35.318Z,1038.92
2019-01-04T02:42:35.295Z,1038.88
2019-01-04T02:43:35.555Z,1038.86
2019-01-04T02:44:35.145Z,1038.88
2019-01-04T02:45:35.176Z,1038.87
2019-01-04T02:46:35.174Z,1038.85
2019-01-04T02:47:35.332Z,1038.93
2019-01-04T02:48:35.143Z,1038.91
2019-01-04T02:49:35.154Z,1038.85
2019-01-04T02:50:35.188Z,1038.85
2019-01-04T02:51:35.330Z,1038.86
2019-01-04T02:52:35.189Z,1038.87
2019-01-04T02:53:35.241Z,1038.85
2019-01-04T02:54:35.145Z,1038.88
2019-01-04T02:55:35.394Z,1038.88
2019-01-04T02:56:35.394Z,1038.88
2019-01-04T02:57:35.410Z,1038.9
2019-01-04T02:58:35.143Z,1038.89
2019-01-04T02:59:35.339Z,1038.88
2019-01-04T03:00:35.194Z,1038.86
2019-01-04T03:01:35.163Z,1038.87
2019-01-04T03:02:35.549Z,1038.86
2019-01-04T03:03:35.285Z,1038.85
2019-01-04T03:04:35.348Z,1038.89
2019-01-04T03:05:35.239Z,1038.92
2019-01-04T03:06:35.104Z,1038.87
2019-01-04T03:07:35.472Z,1038.8
2019-01-04T03:08:35.416Z,1038.85
2019-01-04T03:09:35.374Z,1038.85
2019-01-04T03:10:35.313Z,1038.78
2019-01-04T03:11:35.974Z,1038.85
2019-01-04T03:12:35.348Z,1038.78
2019-01-04T03:13:35.317Z,1038.76
2019-01-04T03:14:35.330Z,1038.76
2019-01-04T03:15:35.102Z,1038.75
2019-01-04T03:16:35.399Z,1038.74
2019-01-04T03:17:35.344Z,1038.72
2019-01-04T03:18:35.240Z,1038.7
2019-01-04T03:19:35.128Z,1038.66
2019-01-04T03:20:35.137Z,1038.64
2019-01-04T03:21:35.274Z,1038.64
2019-01-04T03:22:35.944Z,1038.57
2019-01-04T03:23:35.353Z,1038.56
2019-01-04T03:24:35.957Z,1038.55
2019-01-04T03:25:35.265Z,1038.57
2019-01-04T03:26:35.143Z,1038.56
2019-01-04T03:27:35.300Z,1038.55
2019-01-04T03:28:35.147Z,1038.53
2019-01-04T03:29:35.351Z,1038.58
2019-01-04T03:30:35.224Z,1038.61
2019-01-04T03:31:35.542Z,1038.59
2019-01-04T03:32:35.116Z,1038.55
2019-01-04T03:33:35.206Z,1038.55
2019-01-04T03:34:35.131Z,1038.56
2019-01-04T03:35:35.405Z,1038.55
2019-01-04T03:36:35.280Z,1038.51
2019-01-04T03:37:35.392Z,1038.53
2019-01-04T03:38:35.101Z,1038.54
2019-01-04T03:39:35.119Z,1038.53
2019-01-04T03:40:35.083Z,1038.58
2019-01-04T03:41:35.401Z,1038.58
2019-01-04T03:42:35.484Z,1038.62
2019-01-04T03:43:35.079Z,1038.64
2019-01-04T03:44:35.353Z,1038.61
2019-01-04T03:45:35.122Z,1038.6
2019-01-04T03:46:35.409Z,1038.65
2019-01-04T03:47:35.149Z,1038.64
2019-01-04T03:48:35.160Z,1038.65
2019-01-04T03:49:35.198Z,1038.65
2019-01-04T03:50:35.096Z,1038.66
2019-01-04T03:51:35.086Z,1038.62
2019-01-04T03:52:35.100Z,1038.62
2019-01-04T03:53:35.226Z,1038.58
2019-01-04T03:54:35.113Z,1038.6
2019-01-04T03:55:35.202Z,1038.62
2019-01-04T03:56:35.111Z,1038.58
2019-01-04T03:57:35.059Z,1038.54
2019-01-04T03:58:35.065Z,1038.61
2019-01-04T03:59:35.089Z,1038.64
2019-01-04T04:00:35.079Z,1038.55
2019-01-04T04:01:35.107Z,1038.59
2019-01-04T04:02:35.099Z,1038.59
2019-01-04T04:03:35.046Z,1038.57
2019-01-04T04:04:35.053Z,1038.52
2019-01-04T04:05:35.056Z,1038.46
2019-01-04T04:06:35.042Z,1038.51
2019-01-04T04:07:35.257Z,1038.47
2019-01-04T04:08:35.297Z,1038.43
2019-01-04T04:09:35.057Z,1038.46
2019-01-04T04:10:35.058Z,1038.49
2019-01-04T04:11:35.207Z,1038.43
2019-01-04T04:12:35.042Z,1038.45
2019-01-04T04:13:35.378Z,1038.4
2019-01-04T04:14:35.201Z,1038.38
2019-01-04T04:15:35.148Z,1038.33
2019-01-04T04:16:35.298Z,1038.37
2019-01-04T04:17:35.248Z,1038.3
2019-01-04T04:18:35.353Z,1038.32
2019-01-04T04:19:35.868Z,1038.3
2019-01-04T04:20:35.378Z,1038.31
2019-01-04T04:21:35.198Z,1038.3
2019-01-04T04:22:35.083Z,1038.26
2019-01-04T04:23:35.271Z,1038.27
2019-01-04T04:24:35.003Z,1038.25
2019-01-04T04:25:35.047Z,1038.28
2019-01-04T04:26:35.363Z,1038.28
2019-01-04T04:27:35.185Z,1038.38
2019-01-04T04:28:35.068Z,1038.31
2019-01-04T04:29:35.018Z,1038.31
2019-01-04T04:30:35.058Z,1038.27
2019-01-04T04:31:35.027Z,1038.27
2019-01-04T04:32:35.508Z,1038.27
2019-01-04T04:33:35.017Z,1038.3
2019-01-04T04:34:35.038Z,1038.32
2019-01-04T04:35:35.153Z,1038.35
2019-01-04T04:36:35.030Z,1038.37
2019-01-04T04:37:35.373Z,1038.35
2019-01-04T04:38:35.347Z,1038.4
2019-01-04T04:39:35.157Z,1038.37
2019-01-04T04:40:35.177Z,1038.39
2019-01-04T04:41:35.013Z,1038.38
2019-01-04T04:42:35.072Z,1038.38
2019-01-04T04:43:35.019Z,1038.32
2019-01-04T04:44:35.117Z,1038.31
2019-01-04T04:45:35.143Z,1038.27
2019-01-04T04:46:35.644Z,1038.26
2019-01-04T04:47:35.523Z,1038.22
2019-01-04T04:48:35.334Z,1038.21
2019-01-04T04:49:35.183Z,1038.19
2019-01-04T04:50:35.258Z,1038.24
2019-01-04T04:51:35.845Z,1038.21
2019-01-04T04:52:35.802Z,1038.25
2019-01-04T04:53:36.177Z,1038.22
2019-01-04T04:54:35.167Z,1038.25
2019-01-04T04:55:35.180Z,1038.24
2019-01-04T04:56:35.073Z,1038.2
2019-01-04T04:57:35.183Z,1038.21
2019-01-04T04:58:35.111Z,1038.12
2019-01-04T04:59:35.019Z,1038.22
2019-01-04T05:00:35.219Z,1038.23
2019-01-04T05:01:35.301Z,1038.24
2019-01-04T05:02:35.265Z,1038.2
2019-01-04T05:03:35.019Z,1038.25
2019-01-04T05:04:35.078Z,1038.29
2019-01-04T05:05:35.134Z,1038.22
2019-01-04T05:06:35.068Z,1038.21
2019-01-04T05:07:35.442Z,1038.26
2019-01-04T05:08:35.128Z,1038.25
2019-01-04T05:09:35.045Z,1038.28
2019-01-04T05:10:34.962Z,1038.24
2019-01-04T05:11:35.513Z,1038.25
2019-01-04T05:12:34.978Z,1038.24
2019-01-04T05:13:35.186Z,1038.24
2019-01-04T05:14:35.139Z,1038.27
2019-01-04T05:15:35.138Z,1038.27
2019-01-04T05:16:34.971Z,1038.28
2019-01-04T05:17:35.290Z,1038.3
2019-01-04T05:18:35.108Z,1038.35
2019-01-04T05:19:35.131Z,1038.39
2019-01-04T05:20:35.168Z,1038.39
2019-01-04T05:21:34.942Z,1038.4
2019-01-04T05:22:34.974Z,1038.39
2019-01-04T05:23:35.332Z,1038.39
2019-01-04T05:24:35.096Z,1038.39
2019-01-04T05:25:34.918Z,1038.4
2019-01-04T05:26:35.184Z,1038.45
2019-01-04T05:27:35.439Z,1038.4
2019-01-04T05:28:35.050Z,1038.42
2019-01-04T05:29:34.925Z,1038.37
2019-01-04T05:30:35.153Z,1038.37
2019-01-04T05:31:35.262Z,1038.39
2019-01-04T05:32:34.980Z,1038.4
2019-01-04T05:33:34.960Z,1038.41
2019-01-04T05:34:34.990Z,1038.47
2019-01-04T05:35:34.908Z,1038.43
2019-01-04T05:36:35.054Z,1038.42
2019-01-04T05:37:35.008Z,1038.48
2019-01-04T05:38:34.941Z,1038.39
2019-01-04T05:39:34.986Z,1038.43
2019-01-04T05:40:34.901Z,1038.48
2019-01-04T05:41:35.039Z,1038.55
2019-01-04T05:42:34.944Z,1038.54
2019-01-04T05:43:35.018Z,1038.58
2019-01-04T05:44:35.026Z,1038.54
2019-01-04T05:45:35.009Z,1038.58
2019-01-04T05:46:35.018Z,1038.53
2019-01-04T05:47:35.020Z,1038.48
2019-01-04T05:48:35.034Z,1038.44
2019-01-04T05:49:35.058Z,1038.43
2019-01-04T05:50:34.973Z,1038.46
2019-01-04T05:51:35.094Z,1038.45
2019-01-04T05:52:35.244Z,1038.39
2019-01-04T05:53:35.116Z,1038.45
2019-01-04T05:54:34.964Z,1038.45
2019-01-04T05:55:35.023Z,1038.48
2019-01-04T05:56:35.126Z,1038.47
2019-01-04T05:57:34.946Z,1038.47
2019-01-04T05:58:35.018Z,1038.46
2019-01-04T05:59:35.725Z,1038.42
2019-01-04T06:00:35.043Z,1038.43
2019-01-04T06:01:35.072Z,1038.43
2019-01-04T06:02:34.926Z,1038.49
2019-01-04T06:03:34.878Z,1038.45
2019-01-04T06:04:35.099Z,1038.53
2019-01-04T06:05:34.971Z,1038.44
2019-01-04T06:06:35.297Z,1038.43
2019-01-04T06:07:35.093Z,1038.4
2019-01-04T06:08:35.056Z,1038.38
2019-01-04T06:09:35.246Z,1038.37
2019-01-04T06:10:35.055Z,1038.39
2019-01-04T06:11:35.175Z,1038.34
2019-01-04T06:12:35.047Z,1038.39
2019-01-04T06:13:35.158Z,1038.36
2019-01-04T06:14:35.289Z,1038.33
2019-01-04T06:15:35.038Z,1038.31
2019-01-04T06:16:35.046Z,1038.31
2019-01-04T06:17:35.087Z,1038.31
2019-01-04T06:18:34.874Z,1038.3
2019-01-04T06:19:35.086Z,1038.33
2019-01-04T06:20:35.720Z,1038.24
2019-01-04T06:21:34.859Z,1038.24
2019-01-04T06:22:35.115Z,1038.24
2019-01-04T06:23:35.705Z,1038.26
2019-01-04T06:24:35.579Z,1038.29
2019-01-04T06:25:35.061Z,1038.33
2019-01-04T06:26:34.860Z,1038.34
2019-01-04T06:27:35.733Z,1038.28
2019-01-04T06:28:35.246Z,1038.35
2019-01-04T06:29:35.089Z,1038.34
2019-01-04T06:30:34.855Z,1038.39
2019-01-04T06:31:34.877Z,1038.36
2019-01-04T06:32:35.546Z,1038.37
2019-01-04T06:33:35.293Z,1038.39
2019-01-04T06:34:34.939Z,1038.4
2019-01-04T06:35:35.144Z,1038.36
2019-01-04T06:36:35.105Z,1038.39
2019-01-04T06:37:34.905Z,1038.38
2019-01-04T06:38:35.037Z,1038.42
2019-01-04T06:39:35.069Z,1038.38
2019-01-04T06:40:34.853Z,1038.36
2019-01-04T06:41:35.075Z,1038.4
2019-01-04T06:42:35.146Z,1038.41
2019-01-04T06:43:35.254Z,1038.45
2019-01-04T06:44:34.831Z,1038.45
2019-01-04T06:45:35.101Z,1038.48
2019-01-04T06:46:35.666Z,1038.54
2019-01-04T06:47:34.997Z,1038.5
2019-01-04T06:48:35.023Z,1038.53
2019-01-04T06:49:34.989Z,1038.51
2019-01-04T06:50:35.199Z,1038.5
2019-01-04T06:51:35.223Z,1038.5
2019-01-04T06:52:35.017Z,1038.52
2019-01-04T06:53:35.135Z,1038.5
2019-01-04T06:54:35.017Z,1038.52
2019-01-04T06:55:35.219Z,1038.51
2019-01-04T06:56:34.983Z,1038.51
2019-01-04T06:57:34.996Z,1038.52
2019-01-04T06:58:34.988Z,1038.47
2019-01-04T06:59:35.044Z,1038.52
2019-01-04T07:00:35.664Z,1038.56
2019-01-04T07:01:34.920Z,1038.55
2019-01-04T07:02:34.946Z,1038.58
2019-01-04T07:03:35.208Z,1038.58
2019-01-04T07:04:35.022Z,1038.56
2019-01-04T07:05:35.082Z,1038.58
2019-01-04T07:06:34.896Z,1038.57
2019-01-04T07:07:34.939Z,1038.57
2019-01-04T07:08:34.860Z,1038.65
2019-01-04T07:09:34.951Z,1038.68
2019-01-04T07:10:35.001Z,1038.65
2019-01-04T07:11:34.818Z,1038.67
2019-01-04T07:12:34.974Z,1038.71
2019-01-04T07:13:35.087Z,1038.7
2019-01-04T07:14:34.920Z,1038.66
2019-01-04T07:15:35.255Z,1038.69
2019-01-04T07:16:34.867Z,1038.76
2019-01-04T07:17:34.771Z,1038.66
2019-01-04T07:18:34.942Z,1038.68
2019-01-04T07:19:34.765Z,1038.69
2019-01-04T07:20:34.972Z,1038.71
2019-01-04T07:21:34.967Z,1038.68
2019-01-04T07:22:35.019Z,1038.68
2019-01-04T07:23:34.911Z,1038.69
2019-01-04T07:24:34.957Z,1038.65
2019-01-04T07:25:34.775Z,1038.65
2019-01-04T07:26:35.073Z,1038.73
2019-01-04T07:27:34.980Z,1038.73
2019-01-04T07:28:34.983Z,1038.8
2019-01-04T07:29:34.987Z,1038.8
2019-01-04T07:30:34.856Z,1038.84
2019-01-04T07:31:35.137Z,1038.83
2019-01-04T07:32:34.776Z,1038.86
2019-01-04T07:33:35.085Z,1038.86
2019-01-04T07:34:34.877Z,1038.87
2019-01-04T07:35:34.994Z,1038.87
2019-01-04T07:36:34.986Z,1038.92
2019-01-04T07:37:35.574Z,1038.94
2019-01-04T07:38:35.589Z,1038.92
2019-01-04T07:39:34.768Z,1038.9
2019-01-04T07:40:34.764Z,1038.97
2019-01-04T07:41:35.452Z,1038.99
2019-01-04T07:42:35.063Z,1038.94
2019-01-04T07:43:34.868Z,1038.95
2019-01-04T07:44:34.894Z,1038.94
2019-01-04T07:45:35.070Z,1038.94
2019-01-04T07:46:34.746Z,1039.02
2019-01-04T07:47:35.001Z,1038.99
2019-01-04T07:48:35.020Z,1038.94
2019-01-04T07:49:34.771Z,1038.98
2019-01-04T07:50:34.976Z,1039.02
2019-01-04T07:51:35.126Z,1039.02
2019-01-04T07:52:34.789Z,1039.04
2019-01-04T07:53:34.898Z,1039.07
2019-01-04T07:54:34.822Z,1039.09
2019-01-04T07:55:34.951Z,1039.07
2019-01-04T07:56:34.812Z,1039.06
2019-01-04T07:57:34.922Z,1039
2019-01-04T07:58:35.139Z,1039.03
2019-01-04T07:59:34.767Z,1039.03
2019-01-04T08:00:35.068Z,1039.09
2019-01-04T08:01:34.946Z,1039.04
2019-01-04T08:02:34.985Z,1039.07
2019-01-04T08:03:34.896Z,1039.07
2019-01-04T08:04:34.775Z,1039.05
2019-01-04T08:05:34.769Z,1039.01
2019-01-04T08:06:34.823Z,1039.01
2019-01-04T08:07:34.778Z,1039.07
2019-01-04T08:08:34.723Z,1039.02
2019-01-04T08:09:34.998Z,1038.99
2019-01-04T08:10:34.834Z,1039.04
2019-01-04T08:11:35.535Z,1039.05
2019-01-04T08:12:34.712Z,1039.06
2019-01-04T08:13:35.151Z,1039.13
2019-01-04T08:14:34.760Z,1039.07
2019-01-04T08:15:34.928Z,1039.09
2019-01-04T08:16:35.022Z,1039.12
2019-01-04T08:17:34.927Z,1039.12
2019-01-04T08:18:34.921Z,1039.15
2019-01-04T08:19:34.808Z,1039.19
2019-01-04T08:20:34.955Z,1039.22
2019-01-04T08:21:34.716Z,1039.27
2019-01-04T08:22:34.979Z,1039.31
2019-01-04T08:23:35.039Z,1039.29
2019-01-04T08:24:34.723Z,1039.22
2019-01-04T08:25:34.960Z,1039.26
2019-01-04T08:26:34.909Z,1039.23
2019-01-04T08:27:35.542Z,1039.13
2019-01-04T08:28:34.930Z,1039.13
2019-01-04T08:29:34.833Z,1039.13
2019-01-04T08:30:34.758Z,1039.09
2019-01-04T08:31:34.939Z,1039.09
2019-01-04T08:32:34.958Z,1039.07
2019-01-04T08:33:34.906Z,1039.07
2019-01-04T08:34:34.945Z,1039.11
2019-01-04T08:35:34.699Z,1039.12
2019-01-04T08:36:34.763Z,1039.08
2019-01-04T08:37:34.779Z,1039.1
2019-01-04T08:38:34.798Z,1039.1
2019-01-04T08:39:35.051Z,1039.1
2019-01-04T08:40:34.678Z,1039.11
2019-01-04T08:41:34.687Z,1039.09
2019-01-04T08:42:34.930Z,1039.08
2019-01-04T08:43:35.076Z,1039.09
2019-01-04T08:44:34.781Z,1039.1
2019-01-04T08:45:35.007Z,1039.05
2019-01-04T08:46:34.623Z,1039.11
2019-01-04T08:47:35.060Z,1039.06
2019-01-04T08:48:34.971Z,1039.1
2019-01-04T08:49:34.726Z,1039.06
2019-01-04T08:50:34.761Z,1039.08
2019-01-04T08:51:34.765Z,1039.11
2019-01-04T08:52:34.728Z,1039.03
2019-01-04T08:53:34.671Z,1039.08
2019-01-04T08:54:35.094Z,1039.07
2019-01-04T08:55:34.756Z,1039.07
2019-01-04T08:56:34.677Z,1039.04
2019-01-04T08:57:34.683Z,1039.03
2019-01-04T08:58:34.671Z,1039.12
2019-01-04T08:59:35.435Z,1039.04
2019-01-04T09:00:35.044Z,1039.09
2019-01-04T09:01:34.731Z,1039.1
2019-01-04T09:02:34.670Z,1039.11
2019-01-04T09:03:34.645Z,1039.1
2019-01-04T09:04:34.782Z,1039.13
2019-01-04T09:05:34.758Z,1039.1
2019-01-04T09:06:34.971Z,1039.05
2019-01-04T09:07:34.716Z,1039
2019-01-04T09:08:34.986Z,1038.97
2019-01-04T09:09:34.766Z,1038.9
2019-01-04T09:10:34.930Z,1038.95
2019-01-04T09:11:34.782Z,1038.95
2019-01-04T09:12:34.758Z,1038.95
2019-01-04T09:13:34.888Z,1038.99
2019-01-04T09:14:34.874Z,1039
2019-01-04T09:15:34.983Z,1039.01
2019-01-04T09:16:34.724Z,1038.98
2019-01-04T09:17:34.778Z,1039.04
2019-01-04T09:18:34.739Z,1039.01
2019-01-04T09:19:35.098Z,1039.14
2019-01-04T09:20:34.766Z,1039.15
2019-01-04T09:21:35.043Z,1039.17
2019-01-04T09:22:35.253Z,1039.2
2019-01-04T09:23:35.076Z,1039.23
2019-01-04T09:24:34.621Z,1039.21
2019-01-04T09:25:34.680Z,1039.2
2019-01-04T09:26:35.010Z,1039.15
2019-01-04T09:27:34.739Z,1039.16
2019-01-04T09:28:34.722Z,1039.15
2019-01-04T09:29:34.650Z,1039.09
2019-01-04T09:30:35.009Z,1039.09
2019-01-04T09:31:34.589Z,1039.08
2019-01-04T09:32:34.815Z,1039.08
2019-01-04T09:33:34.802Z,1039.04
2019-01-04T09:34:34.996Z,1039.03
2019-01-04T09:35:34.693Z,1039.01
2019-01-04T09:36:34.985Z,1039.04
2019-01-04T09:37:34.663Z,1039.06
2019-01-04T09:38:34.686Z,1039.1
2019-01-04T09:39:34.658Z,1039.14
2019-01-04T09:40:34.647Z,1039.12
2019-01-04T09:41:35.177Z,1039.14
2019-01-04T09:42:34.847Z,1039.08
2019-01-04T09:43:34.582Z,1039.07
2019-01-04T09:44:35.018Z,1039.05
2019-01-04T09:45:35.013Z,1039.02
2019-01-04T09:46:34.949Z,1038.96
2019-01-04T09:47:34.592Z,1038.97
2019-01-04T09:48:34.863Z,1039.01
2019-01-04T09:49:34.563Z,1039
2019-01-04T09:50:34.602Z,1039
2019-01-04T09:51:34.761Z,1038.96
2019-01-04T09:52:34.956Z,1038.96
2019-01-04T09:53:34.711Z,1038.99
2019-01-04T09:54:34.662Z,1038.89
2019-01-04T09:55:36.166Z,1038.85
2019-01-04T09:56:34.436Z,1038.9
2019-01-04T09:57:34.974Z,1038.91
2019-01-04T09:58:34.603Z,1038.94
2019-01-04T09:59:34.786Z,1038.91
2019-01-04T10:00:34.930Z,1038.92
2019-01-04T10:01:35.410Z,1038.92
2019-01-04T10:02:34.561Z,1038.92
2019-01-04T10:03:34.551Z,1038.9
2019-01-04T10:04:35.100Z,1038.9
2019-01-04T10:05:34.714Z,1038.83
2019-01-04T10:06:34.925Z,1038.83
2019-01-04T10:07:34.770Z,1038.74
2019-01-04T10:08:34.714Z,1038.73
2019-01-04T10:09:34.977Z,1038.72
2019-01-04T10:10:34.630Z,1038.67
2019-01-04T10:11:35.389Z,1038.67
2019-01-04T10:12:34.782Z,1038.63
2019-01-04T10:13:34.780Z,1038.61
2019-01-04T10:14:34.405Z,1038.56
2019-01-04T10:15:34.530Z,1038.54
2019-01-04T10:16:34.568Z,1038.54
2019-01-04T10:17:34.611Z,1038.49
2019-01-04T10:18:35.369Z,1038.48
2019-01-04T10:19:34.634Z,1038.46
2019-01-04T10:20:34.915Z,1038.45
2019-01-04T10:21:35.381Z,1038.4
2019-01-04T10:22:34.683Z,1038.38
2019-01-04T10:23:34.620Z,1038.35
2019-01-04T10:24:34.740Z,1038.33
2019-01-04T10:25:34.586Z,1038.33
2019-01-04T10:26:34.705Z,1038.27
2019-01-04T10:27:34.542Z,1038.33
2019-01-04T10:28:34.547Z,1038.33
2019-01-04T10:29:34.748Z,1038.29
2019-01-04T10:30:34.621Z,1038.29
2019-01-04T10:31:34.504Z,1038.25
2019-01-04T10:32:34.734Z,1038.29
2019-01-04T10:33:34.758Z,1038.25
2019-01-04T10:34:34.748Z,1038.29
2019-01-04T10:35:34.532Z,1038.29
2019-01-04T10:36:34.648Z,1038.31
2019-01-04T10:37:34.682Z,1038.27
2019-01-04T10:38:34.551Z,1038.27
2019-01-04T10:39:34.505Z,1038.26
2019-01-04T10:40:34.719Z,1038.28
2019-01-04T10:41:34.606Z,1038.26
2019-01-04T10:42:34.546Z,1038.22
2019-01-04T10:43:34.710Z,1038.14
2019-01-04T10:44:34.487Z,1038.13
2019-01-04T10:45:34.519Z,1038.11
2019-01-04T10:46:34.469Z,1038.1
2019-01-04T10:47:34.991Z,1038.07
2019-01-04T10:48:34.517Z,1038.05
2019-01-04T10:49:34.627Z,1038.07
2019-01-04T10:50:34.583Z,1038
2019-01-04T10:51:34.477Z,1037.99
2019-01-04T10:52:34.569Z,1037.96
2019-01-04T10:53:34.506Z,1037.96
2019-01-04T10:54:34.634Z,1037.92
2019-01-04T10:55:34.543Z,1037.97
2019-01-04T10:56:34.651Z,1037.92
2019-01-04T10:57:34.951Z,1037.95
2019-01-04T10:58:34.574Z,1037.89
2019-01-04T10:59:34.627Z,1037.9
2019-01-04T11:00:34.654Z,1037.93
2019-01-04T11:01:34.511Z,1037.91
2019-01-04T11:02:34.602Z,1037.91
2019-01-04T11:03:34.811Z,1037.96
2019-01-04T11:04:34.626Z,1037.95
2019-01-04T11:05:34.736Z,1037.92
2019-01-04T11:06:34.718Z,1037.92
2019-01-04T11:07:35.034Z,1037.95
2019-01-04T11:08:34.643Z,1037.94
2019-01-04T11:09:34.446Z,1038
2019-01-04T11:10:34.806Z,1037.94
2019-01-04T11:11:34.578Z,1037.97
2019-01-04T11:12:34.600Z,1037.93
2019-01-04T11:13:34.549Z,1037.94
2019-01-04T11:14:34.653Z,1037.88
2019-01-04T11:15:35.074Z,1037.92
2019-01-04T11:16:34.511Z,1037.9
2019-01-04T11:17:34.791Z,1037.92
2019-01-04T11:18:34.502Z,1037.96
2019-01-04T11:19:34.461Z,1037.92
2019-01-04T11:20:34.450Z,1037.92
2019-01-04T11:21:34.593Z,1037.93
2019-01-04T11:22:34.589Z,1037.84
2019-01-04T11:23:34.755Z,1037.83
2019-01-04T11:24:35.027Z,1037.79
2019-01-04T11:25:34.477Z,1037.8
2019-01-04T11:26:34.921Z,1037.83
2019-01-04T11:27:35.281Z,1037.77
2019-01-04T11:28:34.558Z,1037.78
2019-01-04T11:29:34.506Z,1037.74
2019-01-04T11:30:34.445Z,1037.7
2019-01-04T11:31:35.286Z,1037.68
2019-01-04T11:32:34.994Z,1037.7
2019-01-04T11:33:34.731Z,1037.69
2019-01-04T11:34:35.276Z,1037.72
2019-01-04T11:35:34.828Z,1037.67
2019-01-04T11:36:34.650Z,1037.67
2019-01-04T11:37:34.751Z,1037.62
2019-01-04T11:38:34.646Z,1037.63
2019-01-04T11:39:34.586Z,1037.61
2019-01-04T11:40:35.273Z,1037.62
2019-01-04T11:41:34.474Z,1037.61
2019-01-04T11:42:35.129Z,1037.59
2019-01-04T11:43:34.691Z,1037.59
2019-01-04T11:44:34.890Z,1037.52
2019-01-04T11:45:34.658Z,1037.5
2019-01-04T11:46:35.060Z,1037.5
2019-01-04T11:47:34.726Z,1037.44
2019-01-04T11:48:34.760Z,1037.42
2019-01-04T11:49:34.712Z,1037.41
2019-01-04T11:50:35.329Z,1037.4
2019-01-04T11:51:34.611Z,1037.34
2019-01-04T11:52:34.646Z,1037.39
2019-01-04T11:53:34.730Z,1037.38
2019-01-04T11:54:34.451Z,1037.36
2019-01-04T11:55:34.717Z,1037.33
2019-01-04T11:56:34.469Z,1037.35
2019-01-04T11:57:34.758Z,1037.28
2019-01-04T11:58:34.564Z,1037.33
2019-01-04T11:59:34.807Z,1037.25
2019-01-04T12:00:34.770Z,1037.18
2019-01-04T12:01:35.280Z,1037.19
2019-01-04T12:02:34.669Z,1037.13
2019-01-04T12:03:34.394Z,1037.05
2019-01-04T12:04:34.580Z,1037.05
2019-01-04T12:05:34.714Z,1037.02
2019-01-04T12:06:34.540Z,1037.08
2019-01-04T12:07:34.525Z,1037.1
2019-01-04T12:08:34.721Z,1037.1